sensor_id;sensor_type;location;lat;lon;timestamp;pressure;altitude;pressure_sealevel;temperature;humidity
57574;BME280;68988;49.000;21.242;2023-07-29T00:00:19;98128.00;;;26.59;43.88
57574;BME280;68988;49.000;21.242;2023-07-29T00:02:45;98134.69;;;26.62;44.19
57574;BME280;68988;49.000;21.242;2023-07-29T00:05:10;98134.47;;;26.58;43.86
57574;BME280;68988;49.000;21.242;2023-07-29T00:07:36;98126.94;;;26.60;44.29
57574;BME280;68988;49.000;21.242;2023-07-29T00:10:01;98129.63;;;26.60;43.84
57574;BME280;68988;49.000;21.242;2023-07-29T00:12:28;98127.53;;;26.57;43.85
57574;BME280;68988;49.000;21.242;2023-07-29T00:14:54;98136.66;;;26.56;44.22
57574;BME280;68988;49.000;21.242;2023-07-29T00:17:19;98130.50;;;26.56;44.18
57574;BME280;68988;49.000;21.242;2023-07-29T00:19:45;98136.97;;;26.55;44.04
57574;BME280;68988;49.000;21.242;2023-07-29T00:22:11;98135.88;;;26.56;44.24
57574;BME280;68988;49.000;21.242;2023-07-29T00:24:36;98141.56;;;26.54;44.28
57574;BME280;68988;49.000;21.242;2023-07-29T00:27:02;98134.56;;;26.53;44.32
57574;BME280;68988;49.000;21.242;2023-07-29T00:29:27;98135.06;;;26.55;44.01
57574;BME280;68988;49.000;21.242;2023-07-29T00:31:52;98128.13;;;26.54;44.07
57574;BME280;68988;49.000;21.242;2023-07-29T00:34:18;98133.50;;;26.54;44.03
57574;BME280;68988;49.000;21.242;2023-07-29T00:36:45;98141.56;;;26.54;43.76
57574;BME280;68988;49.000;21.242;2023-07-29T00:39:10;98137.25;;;26.53;43.73
57574;BME280;68988;49.000;21.242;2023-07-29T00:41:36;98135.66;;;26.52;43.90
57574;BME280;68988;49.000;21.242;2023-07-29T00:44:01;98135.16;;;26.50;44.00
57574;BME280;68988;49.000;21.242;2023-07-29T00:46:28;98134.09;;;26.51;43.63
57574;BME280;68988;49.000;21.242;2023-07-29T00:48:53;98128.69;;;26.51;43.77
57574;BME280;68988;49.000;21.242;2023-07-29T00:51:19;98131.97;;;26.48;43.95
57574;BME280;68988;49.000;21.242;2023-07-29T00:53:44;98137.84;;;26.50;43.81
57574;BME280;68988;49.000;21.242;2023-07-29T00:56:10;98126.81;;;26.52;44.02
57574;BME280;68988;49.000;21.242;2023-07-29T00:58:35;98128.69;;;26.51;43.58
57574;BME280;68988;49.000;21.242;2023-07-29T01:01:01;98141.25;;;26.56;43.51
57574;BME280;68988;49.000;21.242;2023-07-29T01:03:27;98121.13;;;26.53;43.88
57574;BME280;68988;49.000;21.242;2023-07-29T01:08:58;98132.47;;;26.50;43.72
57574;BME280;68988;49.000;21.242;2023-07-29T01:11:38;98130.09;;;26.49;43.50
57574;BME280;68988;49.000;21.242;2023-07-29T01:14:21;98117.53;;;26.44;43.60
57574;BME280;68988;49.000;21.242;2023-07-29T01:16:55;98122.50;;;26.51;43.65
57574;BME280;68988;49.000;21.242;2023-07-29T01:19:41;98117.44;;;26.49;43.63
57574;BME280;68988;49.000;21.242;2023-07-29T01:22:08;98116.16;;;26.47;43.52
57574;BME280;68988;49.000;21.242;2023-07-29T01:24:35;98121.53;;;26.47;43.42
57574;BME280;68988;49.000;21.242;2023-07-29T01:27:00;98122.31;;;26.47;43.36
57574;BME280;68988;49.000;21.242;2023-07-29T01:29:27;98119.91;;;26.45;43.88
57574;BME280;68988;49.000;21.242;2023-07-29T01:31:54;98122.91;;;26.44;43.86
57574;BME280;68988;49.000;21.242;2023-07-29T01:34:32;98115.34;;;26.46;43.61
57574;BME280;68988;49.000;21.242;2023-07-29T01:37:02;98123.91;;;26.48;43.32
57574;BME280;68988;49.000;21.242;2023-07-29T01:39:32;98114.53;;;26.45;43.72
57574;BME280;68988;49.000;21.242;2023-07-29T01:42:00;98110.56;;;26.43;43.73
57574;BME280;68988;49.000;21.242;2023-07-29T01:44:26;98108.38;;;26.45;43.74
57574;BME280;68988;49.000;21.242;2023-07-29T01:46:51;98116.44;;;26.45;43.64
57574;BME280;68988;49.000;21.242;2023-07-29T01:49:16;98117.53;;;26.44;43.28
57574;BME280;68988;49.000;21.242;2023-07-29T01:51:42;98116.44;;;26.45;43.36
57574;BME280;68988;49.000;21.242;2023-07-29T01:54:07;98121.31;;;26.43;43.48
57574;BME280;68988;49.000;21.242;2023-07-29T01:56:33;98124.81;;;26.43;43.63
57574;BME280;68988;49.000;21.242;2023-07-29T01:58:58;98122.91;;;26.44;43.36
57574;BME280;68988;49.000;21.242;2023-07-29T02:01:23;98117.34;;;26.40;43.25
57574;BME280;68988;49.000;21.242;2023-07-29T02:03:48;98121.31;;;26.43;43.55
57574;BME280;68988;49.000;21.242;2023-07-29T02:06:20;98118.91;;;26.41;43.14
57574;BME280;68988;49.000;21.242;2023-07-29T02:08:45;98126.19;;;26.41;43.49
57574;BME280;68988;49.000;21.242;2023-07-29T02:11:10;98134.25;;;26.41;43.08
57574;BME280;68988;49.000;21.242;2023-07-29T02:13:36;98128.09;;;26.40;43.05
57574;BME280;68988;49.000;21.242;2023-07-29T02:16:01;98129.66;;;26.41;43.07
57574;BME280;68988;49.000;21.242;2023-07-29T02:18:26;98132.16;;;26.38;43.53
57574;BME280;68988;49.000;21.242;2023-07-29T02:20:52;98131.06;;;26.39;43.43
57574;BME280;68988;49.000;21.242;2023-07-29T02:23:17;98139.44;;;26.37;43.38
57574;BME280;68988;49.000;21.242;2023-07-29T02:25:42;98129.47;;;26.38;43.33
57574;BME280;68988;49.000;21.242;2023-07-29T02:28:08;98131.28;;;26.42;43.31
57574;BME280;68988;49.000;21.242;2023-07-29T02:30:33;98136.94;;;26.41;43.00
57574;BME280;68988;49.000;21.242;2023-07-29T02:32:59;98129.16;;;26.39;43.19
57574;BME280;68988;49.000;21.242;2023-07-29T02:35:26;98140.22;;;26.38;43.07
57574;BME280;68988;49.000;21.242;2023-07-29T02:37:51;98140.22;;;26.38;43.12
57574;BME280;68988;49.000;21.242;2023-07-29T02:40:17;98146.19;;;26.35;42.94
57574;BME280;68988;49.000;21.242;2023-07-29T02:42:42;98152.16;;;26.32;43.24
57574;BME280;68988;49.000;21.242;2023-07-29T02:45:08;98148.56;;;26.36;43.13
57574;BME280;68988;49.000;21.242;2023-07-29T02:47:36;98151.56;;;26.35;43.08
57574;BME280;68988;49.000;21.242;2023-07-29T02:50:02;98150.06;;;26.29;43.13
57574;BME280;68988;49.000;21.242;2023-07-29T02:52:27;98144.91;;;26.32;43.20
57574;BME280;68988;49.000;21.242;2023-07-29T02:54:52;98144.59;;;26.34;43.08
57574;BME280;68988;49.000;21.242;2023-07-29T02:57:18;98143.00;;;26.33;43.24
57574;BME280;68988;49.000;21.242;2023-07-29T02:59:43;98144.59;;;26.34;42.98
57574;BME280;68988;49.000;21.242;2023-07-29T03:02:09;98151.84;;;26.33;42.81
57574;BME280;68988;49.000;21.242;2023-07-29T03:04:34;98148.38;;;26.33;42.91
57574;BME280;68988;49.000;21.242;2023-07-29T03:06:59;98145.41;;;26.34;43.36
57574;BME280;68988;49.000;21.242;2023-07-29T03:09:25;98147.88;;;26.31;43.13
57574;BME280;68988;49.000;21.242;2023-07-29T03:11:50;98151.56;;;26.35;42.90
57574;BME280;68988;49.000;21.242;2023-07-29T03:14:17;98150.28;;;26.32;43.00
57574;BME280;68988;49.000;21.242;2023-07-29T03:16:43;98152.97;;;26.32;43.12
57574;BME280;68988;49.000;21.242;2023-07-29T03:19:08;98163.09;;;26.35;42.75
57574;BME280;68988;49.000;21.242;2023-07-29T03:21:34;98164.22;;;26.34;43.15
57574;BME280;68988;49.000;21.242;2023-07-29T03:23:59;98173.25;;;26.38;42.61
57574;BME280;68988;49.000;21.242;2023-07-29T03:26:25;98165.50;;;26.37;43.08
57574;BME280;68988;49.000;21.242;2023-07-29T03:28:51;98174.66;;;26.36;42.77
57574;BME280;68988;49.000;21.242;2023-07-29T03:31:16;98178.63;;;26.38;42.87
57574;BME280;68988;49.000;21.242;2023-07-29T03:33:41;98186.22;;;26.36;43.09
57574;BME280;68988;49.000;21.242;2023-07-29T03:36:07;98193.00;;;26.34;42.73
57574;BME280;68988;49.000;21.242;2023-07-29T03:38:33;98189.78;;;26.32;43.03
57574;BME280;68988;49.000;21.242;2023-07-29T03:41:00;98189.19;;;26.35;42.71
57574;BME280;68988;49.000;21.242;2023-07-29T03:43:28;98183.81;;;26.35;42.76
57574;BME280;68988;49.000;21.242;2023-07-29T03:45:54;98191.78;;;26.40;42.50
57574;BME280;68988;49.000;21.242;2023-07-29T03:48:20;98182.16;;;26.39;42.76
57574;BME280;68988;49.000;21.242;2023-07-29T03:50:45;98181.56;;;26.42;42.50
57574;BME280;68988;49.000;21.242;2023-07-29T03:53:10;98192.38;;;26.37;42.47
57574;BME280;68988;49.000;21.242;2023-07-29T03:55:36;98186.13;;;26.41;42.44
57574;BME280;68988;49.000;21.242;2023-07-29T03:58:01;98185.31;;;26.41;42.32
57574;BME280;68988;49.000;21.242;2023-07-29T04:00:27;98193.41;;;26.41;42.61
57574;BME280;68988;49.000;21.242;2023-07-29T04:02:53;98192.59;;;26.40;42.70
57574;BME280;68988;49.000;21.242;2023-07-29T04:05:18;98184.75;;;26.44;42.55
57574;BME280;68988;49.000;21.242;2023-07-29T04:07:44;98184.75;;;26.44;42.65
57574;BME280;68988;49.000;21.242;2023-07-29T04:10:10;98187.91;;;26.46;42.36
57574;BME280;68988;49.000;21.242;2023-07-29T04:12:36;98191.13;;;26.48;42.59
57574;BME280;68988;49.000;21.242;2023-07-29T04:15:01;98195.50;;;26.44;42.72
57574;BME280;68988;49.000;21.242;2023-07-29T04:17:27;98193.00;;;26.48;42.48
57574;BME280;68988;49.000;21.242;2023-07-29T04:19:52;98188.94;;;26.50;42.66
57574;BME280;68988;49.000;21.242;2023-07-29T04:22:18;98191.91;;;26.49;42.76
57574;BME280;68988;49.000;21.242;2023-07-29T04:24:43;98193.81;;;26.48;42.56
57574;BME280;68988;49.000;21.242;2023-07-29T04:27:08;98201.88;;;26.48;42.75
57574;BME280;68988;49.000;21.242;2023-07-29T04:29:34;98197.88;;;26.45;42.35
57574;BME280;68988;49.000;21.242;2023-07-29T04:32:03;98198.19;;;26.44;42.35
57574;BME280;68988;49.000;21.242;2023-07-29T04:34:29;98204.34;;;26.44;42.44
57574;BME280;68988;49.000;21.242;2023-07-29T04:36:54;98208.84;;;26.49;42.60
57574;BME280;68988;49.000;21.242;2023-07-29T04:39:20;98201.38;;;26.46;42.43
57574;BME280;68988;49.000;21.242;2023-07-29T04:41:47;98211.81;;;26.48;42.58
57574;BME280;68988;49.000;21.242;2023-07-29T04:44:12;98215.91;;;26.45;42.62
57574;BME280;68988;49.000;21.242;2023-07-29T04:46:37;98213.72;;;26.47;42.71
57574;BME280;68988;49.000;21.242;2023-07-29T04:49:04;98213.44;;;26.49;42.76
57574;BME280;68988;49.000;21.242;2023-07-29T04:51:29;98205.16;;;26.45;42.81
57574;BME280;68988;49.000;21.242;2023-07-29T04:53:56;98219.69;;;26.44;42.42
57574;BME280;68988;49.000;21.242;2023-07-29T04:56:22;98221.28;;;26.45;42.55
57574;BME280;68988;49.000;21.242;2023-07-29T04:58:47;98227.75;;;26.44;42.61
57574;BME280;68988;49.000;21.242;2023-07-29T05:01:13;98225.84;;;26.44;42.85
57574;BME280;68988;49.000;21.242;2023-07-29T05:03:38;98223.47;;;26.43;42.50
57574;BME280;68988;49.000;21.242;2023-07-29T05:06:05;98225.06;;;26.44;42.66
57574;BME280;68988;49.000;21.242;2023-07-29T05:08:30;98221.78;;;26.47;42.63
57574;BME280;68988;49.000;21.242;2023-07-29T05:10:56;98218.09;;;26.43;42.53
57574;BME280;68988;49.000;21.242;2023-07-29T05:13:21;98228.84;;;26.43;42.30
57574;BME280;68988;49.000;21.242;2023-07-29T05:15:47;98230.44;;;26.44;42.62
57574;BME280;68988;49.000;21.242;2023-07-29T05:18:13;98230.66;;;26.48;42.75
57574;BME280;68988;49.000;21.242;2023-07-29T05:20:38;98231.47;;;26.48;42.51
57574;BME280;68988;49.000;21.242;2023-07-29T05:23:04;98232.06;;;26.45;43.10
57574;BME280;68988;49.000;21.242;2023-07-29T05:25:29;98230.44;;;26.44;42.87
57574;BME280;68988;49.000;21.242;2023-07-29T05:27:54;98233.63;;;26.46;42.97
57574;BME280;68988;49.000;21.242;2023-07-29T05:30:20;98229.06;;;26.47;42.63
57574;BME280;68988;49.000;21.242;2023-07-29T05:32:45;98233.63;;;26.46;42.66
57574;BME280;68988;49.000;21.242;2023-07-29T05:35:10;98241.63;;;26.51;42.70
57574;BME280;68988;49.000;21.242;2023-07-29T05:37:39;98229.28;;;26.50;42.75
57574;BME280;68988;49.000;21.242;2023-07-29T05:40:08;98233.03;;;26.49;42.76
57574;BME280;68988;49.000;21.242;2023-07-29T05:42:36;98235.72;;;26.49;42.85
57574;BME280;68988;49.000;21.242;2023-07-29T05:45:02;98230.34;;;26.49;42.84
57574;BME280;68988;49.000;21.242;2023-07-29T05:47:27;98226.09;;;26.48;42.83
57574;BME280;68988;49.000;21.242;2023-07-29T05:49:53;98234.06;;;26.53;42.68
57574;BME280;68988;49.000;21.242;2023-07-29T05:52:18;98226.50;;;26.55;42.63
57574;BME280;68988;49.000;21.242;2023-07-29T05:54:44;98233.28;;;26.53;43.21
57574;BME280;68988;49.000;21.242;2023-07-29T05:57:10;98227.06;;;26.52;43.01
57574;BME280;68988;49.000;21.242;2023-07-29T05:59:36;98229.47;;;26.54;43.04
57574;BME280;68988;49.000;21.242;2023-07-29T06:02:01;98228.69;;;26.53;43.04
57574;BME280;68988;49.000;21.242;2023-07-29T06:04:27;98243.16;;;26.57;42.72
57574;BME280;68988;49.000;21.242;2023-07-29T06:06:52;98238.34;;;26.54;42.89
57574;BME280;68988;49.000;21.242;2023-07-29T06:09:17;98244.22;;;26.56;43.11
57574;BME280;68988;49.000;21.242;2023-07-29T06:11:43;98241.03;;;26.54;43.06
57574;BME280;68988;49.000;21.242;2023-07-29T06:14:08;98253.09;;;26.57;42.68
57574;BME280;68988;49.000;21.242;2023-07-29T06:16:34;98241.25;;;26.58;42.99
57574;BME280;68988;49.000;21.242;2023-07-29T06:18:59;98241.53;;;26.56;42.87
57574;BME280;68988;49.000;21.242;2023-07-29T06:21:24;98251.72;;;26.59;42.66
57574;BME280;68988;49.000;21.242;2023-07-29T06:23:50;98241.25;;;26.58;42.81
57574;BME280;68988;49.000;21.242;2023-07-29T06:26:15;98249.03;;;26.59;42.82
57574;BME280;68988;49.000;21.242;2023-07-29T06:28:41;98240.94;;;26.59;43.02
57574;BME280;68988;49.000;21.242;2023-07-29T06:31:06;98237.47;;;26.59;43.13
57574;BME280;68988;49.000;21.242;2023-07-29T06:33:31;98241.44;;;26.61;42.72
57574;BME280;68988;49.000;21.242;2023-07-29T06:35:57;98234.78;;;26.59;42.91
57574;BME280;68988;49.000;21.242;2023-07-29T06:38:22;98240.66;;;26.61;43.16
57574;BME280;68988;49.000;21.242;2023-07-29T06:40:48;98246.81;;;26.61;43.34
57574;BME280;68988;49.000;21.242;2023-07-29T06:43:14;98247.94;;;26.60;43.09
57574;BME280;68988;49.000;21.242;2023-07-29T06:45:39;98245.75;;;26.62;42.88
57574;BME280;68988;49.000;21.242;2023-07-29T06:48:04;98245.97;;;26.66;42.93
57574;BME280;68988;49.000;21.242;2023-07-29T06:50:30;98242.50;;;26.66;42.93
57574;BME280;68988;49.000;21.242;2023-07-29T06:52:55;98233.34;;;26.67;43.06
57574;BME280;68988;49.000;21.242;2023-07-29T06:55:20;98233.03;;;26.68;43.38
57574;BME280;68988;49.000;21.242;2023-07-29T06:57:46;98235.44;;;26.70;43.59
57574;BME280;68988;49.000;21.242;2023-07-29T07:00:11;98242.91;;;26.73;43.19
57574;BME280;68988;49.000;21.242;2023-07-29T07:02:37;98237.44;;;26.78;43.36
57574;BME280;68988;49.000;21.242;2023-07-29T07:05:02;98239.34;;;26.77;43.10
57574;BME280;68988;49.000;21.242;2023-07-29T07:07:27;98232.56;;;26.80;42.92
57574;BME280;68988;49.000;21.242;2023-07-29T07:09:53;98235.47;;;26.84;43.30
57574;BME280;68988;49.000;21.242;2023-07-29T07:12:18;98237.06;;;26.85;43.11
57574;BME280;68988;49.000;21.242;2023-07-29T07:14:44;98234.06;;;26.86;42.95
57574;BME280;68988;49.000;21.242;2023-07-29T07:17:09;98237.75;;;26.90;43.04
57574;BME280;68988;49.000;21.242;2023-07-29T07:19:34;98237.97;;;26.94;43.16
57574;BME280;68988;49.000;21.242;2023-07-29T07:22:00;98244.16;;;26.94;43.27
57574;BME280;68988;49.000;21.242;2023-07-29T07:24:25;98228.03;;;26.94;42.90
57574;BME280;68988;49.000;21.242;2023-07-29T07:26:51;98232.81;;;26.97;43.34
57574;BME280;68988;49.000;21.242;2023-07-29T07:29:16;98229.00;;;26.98;42.78
57574;BME280;68988;49.000;21.242;2023-07-29T07:31:50;98225.94;;;27.05;42.69
57574;BME280;68988;49.000;21.242;2023-07-29T07:34:16;98231.63;;;27.04;43.04
57574;BME280;68988;49.000;21.242;2023-07-29T07:36:41;98233.19;;;27.05;42.88
57574;BME280;68988;49.000;21.242;2023-07-29T07:39:07;98236.41;;;27.07;42.81
57574;BME280;68988;49.000;21.242;2023-07-29T07:41:32;98230.44;;;27.10;42.76
57574;BME280;68988;49.000;21.242;2023-07-29T07:43:57;98230.19;;;27.06;43.11
57574;BME280;68988;49.000;21.242;2023-07-29T07:46:23;98228.03;;;27.08;42.99
57574;BME280;68988;49.000;21.242;2023-07-29T07:48:48;98223.72;;;27.07;43.34
57574;BME280;68988;49.000;21.242;2023-07-29T07:51:14;98219.66;;;27.10;42.94
57574;BME280;68988;49.000;21.242;2023-07-29T07:53:39;98223.13;;;27.10;43.60
57574;BME280;68988;49.000;21.242;2023-07-29T07:56:05;98217.47;;;27.12;43.52
57574;BME280;68988;49.000;21.242;2023-07-29T07:58:31;98216.66;;;27.11;43.56
57574;BME280;68988;49.000;21.242;2023-07-29T08:01:04;98212.88;;;27.12;42.91
57574;BME280;68988;49.000;21.242;2023-07-29T08:03:29;98211.47;;;27.15;43.24
57574;BME280;68988;49.000;21.242;2023-07-29T08:05:55;98210.38;;;27.16;43.30
57574;BME280;68988;49.000;21.242;2023-07-29T08:08:20;98215.84;;;27.11;43.43
57574;BME280;68988;49.000;21.242;2023-07-29T08:10:46;98204.31;;;27.10;43.01
57574;BME280;68988;49.000;21.242;2023-07-29T08:13:11;98209.38;;;27.12;43.33
57574;BME280;68988;49.000;21.242;2023-07-29T08:15:36;98197.00;;;27.11;42.89
57574;BME280;68988;49.000;21.242;2023-07-29T08:18:02;98200.72;;;27.15;43.19
57574;BME280;68988;49.000;21.242;2023-07-29T08:20:27;98190.13;;;27.19;43.12
57574;BME280;68988;49.000;21.242;2023-07-29T08:22:52;98186.97;;;27.16;43.51
57574;BME280;68988;49.000;21.242;2023-07-29T08:25:18;98189.66;;;27.16;43.23
57574;BME280;68988;49.000;21.242;2023-07-29T08:27:43;98183.47;;;27.16;43.08
57574;BME280;68988;49.000;21.242;2023-07-29T08:30:09;98176.50;;;27.15;43.38
57574;BME280;68988;49.000;21.242;2023-07-29T08:32:34;98172.59;;;27.21;43.49
57574;BME280;68988;49.000;21.242;2023-07-29T08:34:59;98172.13;;;27.19;43.24
57574;BME280;68988;49.000;21.242;2023-07-29T08:37:25;98169.22;;;27.15;43.32
57574;BME280;68988;49.000;21.242;2023-07-29T08:39:52;98162.44;;;27.18;43.55
57574;BME280;68988;49.000;21.242;2023-07-29T08:42:19;98171.59;;;27.17;43.06
57574;BME280;68988;49.000;21.242;2023-07-29T08:44:49;98172.13;;;27.19;43.73
57574;BME280;68988;49.000;21.242;2023-07-29T08:47:14;98167.50;;;27.20;43.36
57574;BME280;68988;49.000;21.242;2023-07-29T08:49:40;98162.72;;;27.16;43.08
57574;BME280;68988;49.000;21.242;2023-07-29T08:52:07;98166.22;;;27.17;43.18
57574;BME280;68988;49.000;21.242;2023-07-29T08:54:32;98162.44;;;27.18;43.50
57574;BME280;68988;49.000;21.242;2023-07-29T08:56:58;98157.06;;;27.18;43.24
57574;BME280;68988;49.000;21.242;2023-07-29T08:59:25;98157.66;;;27.15;43.11
57574;BME280;68988;49.000;21.242;2023-07-29T09:01:51;98151.47;;;27.14;43.37
57574;BME280;68988;49.000;21.242;2023-07-29T09:04:20;98152.28;;;27.15;43.32
57574;BME280;68988;49.000;21.242;2023-07-29T09:06:47;98154.66;;;27.16;43.51
57574;BME280;68988;49.000;21.242;2023-07-29T09:09:15;98149.28;;;27.16;44.05
57574;BME280;68988;49.000;21.242;2023-07-29T09:11:40;98144.69;;;27.17;43.44
57574;BME280;68988;49.000;21.242;2023-07-29T09:14:05;98139.31;;;27.17;43.60
57574;BME280;68988;49.000;21.242;2023-07-29T09:16:31;98147.38;;;27.17;43.82
57574;BME280;68988;49.000;21.242;2023-07-29T09:19:01;98133.13;;;27.16;43.50
57574;BME280;68988;49.000;21.242;2023-07-29T09:21:26;98139.31;;;27.17;43.67
57574;BME280;68988;49.000;21.242;2023-07-29T09:23:54;98134.44;;;27.19;43.71
57574;BME280;68988;49.000;21.242;2023-07-29T09:26:24;98136.31;;;27.19;43.68
57574;BME280;68988;49.000;21.242;2023-07-29T09:28:57;98141.69;;;27.19;43.72
57574;BME280;68988;49.000;21.242;2023-07-29T09:31:25;98133.13;;;27.16;43.93
57574;BME280;68988;49.000;21.242;2023-07-29T09:34:02;98132.22;;;27.21;43.14
57574;BME280;68988;49.000;21.242;2023-07-29T09:36:31;98130.13;;;27.18;43.81
57574;BME280;68988;49.000;21.242;2023-07-29T09:38:57;98130.13;;;27.18;43.60
57574;BME280;68988;49.000;21.242;2023-07-29T09:41:24;98124.75;;;27.18;43.78
57574;BME280;68988;49.000;21.242;2023-07-29T09:43:57;98122.53;;;27.20;43.71
57574;BME280;68988;49.000;21.242;2023-07-29T09:46:25;98124.28;;;27.16;43.93
57574;BME280;68988;49.000;21.242;2023-07-29T09:48:54;98123.16;;;27.17;43.88
57574;BME280;68988;49.000;21.242;2023-07-29T09:51:22;98125.34;;;27.15;43.87
57574;BME280;68988;49.000;21.242;2023-07-29T09:53:49;98114.00;;;27.18;43.99
57574;BME280;68988;49.000;21.242;2023-07-29T09:56:15;98117.16;;;27.20;43.91
57574;BME280;68988;49.000;21.242;2023-07-29T09:58:42;98106.69;;;27.19;43.85
57574;BME280;68988;49.000;21.242;2023-07-29T10:01:08;98112.38;;;27.17;43.63
57574;BME280;68988;49.000;21.242;2023-07-29T10:03:35;98112.38;;;27.17;43.65
57574;BME280;68988;49.000;21.242;2023-07-29T10:06:02;98106.22;;;27.16;43.50
57574;BME280;68988;49.000;21.242;2023-07-29T10:08:29;98110.50;;;27.18;44.05
57574;BME280;68988;49.000;21.242;2023-07-29T10:10:59;98110.50;;;27.18;43.78
57574;BME280;68988;49.000;21.242;2023-07-29T10:13:25;98111.59;;;27.16;43.80
57574;BME280;68988;49.000;21.242;2023-07-29T10:15:52;98098.03;;;27.22;43.48
57574;BME280;68988;49.000;21.242;2023-07-29T10:18:18;98097.53;;;27.20;43.79
57574;BME280;68988;49.000;21.242;2023-07-29T10:20:44;98099.75;;;27.18;44.22
57574;BME280;68988;49.000;21.242;2023-07-29T10:23:10;98089.28;;;27.16;43.76
57574;BME280;68988;49.000;21.242;2023-07-29T10:25:43;98089.47;;;27.20;43.88
57574;BME280;68988;49.000;21.242;2023-07-29T10:28:12;98083.28;;;27.19;44.34
57574;BME280;68988;49.000;21.242;2023-07-29T10:30:39;98094.25;;;27.23;43.88
57574;BME280;68988;49.000;21.242;2023-07-29T10:33:05;98090.47;;;27.24;44.46
57574;BME280;68988;49.000;21.242;2023-07-29T10:35:35;98085.38;;;27.22;44.43
57574;BME280;68988;49.000;21.242;2023-07-29T10:38:03;98090.56;;;27.19;44.12
57574;BME280;68988;49.000;21.242;2023-07-29T10:43:11;98084.88;;;27.20;44.47
57574;BME280;68988;49.000;21.242;2023-07-29T10:45:39;98084.88;;;27.20;43.63
57574;BME280;68988;49.000;21.242;2023-07-29T10:53:53;98073.78;;;27.22;44.26
57574;BME280;68988;49.000;21.242;2023-07-29T10:56:30;98078.28;;;27.26;44.05
57574;BME280;68988;49.000;21.242;2023-07-29T11:01:57;98082.38;;;27.24;43.81
57574;BME280;68988;49.000;21.242;2023-07-29T11:04:28;98076.50;;;27.22;43.75
57574;BME280;68988;49.000;21.242;2023-07-29T11:17:37;98059.25;;;27.23;44.39
57574;BME280;68988;49.000;21.242;2023-07-29T11:20:04;98057.56;;;27.27;44.81
57574;BME280;68988;49.000;21.242;2023-07-29T11:22:30;98058.53;;;27.31;44.55
57574;BME280;68988;49.000;21.242;2023-07-29T11:24:56;98063.72;;;27.27;44.57
57574;BME280;68988;49.000;21.242;2023-07-29T11:27:21;98052.97;;;27.27;44.65
57574;BME280;68988;49.000;21.242;2023-07-29T11:29:47;98058.03;;;27.29;44.89
57574;BME280;68988;49.000;21.242;2023-07-29T11:32:13;98058.34;;;27.27;45.21
57574;BME280;68988;49.000;21.242;2023-07-29T11:34:40;98058.34;;;27.27;45.04
57574;BME280;68988;49.000;21.242;2023-07-29T11:37:06;98068.31;;;27.27;44.97
57574;BME280;68988;49.000;21.242;2023-07-29T11:39:39;98069.59;;;27.29;45.07
57574;BME280;68988;49.000;21.242;2023-07-29T11:42:06;98070.19;;;27.26;45.19
57574;BME280;68988;49.000;21.242;2023-07-29T11:44:31;98067.50;;;27.26;45.29
57574;BME280;68988;49.000;21.242;2023-07-29T11:46:56;98068.50;;;27.30;45.02
57574;BME280;68988;49.000;21.242;2023-07-29T11:49:22;98068.63;;;27.25;45.20
57574;BME280;68988;49.000;21.242;2023-07-29T11:51:47;98074.31;;;27.24;45.26
57574;BME280;68988;49.000;21.242;2023-07-29T11:54:12;98070.31;;;27.21;45.27
57574;BME280;68988;49.000;21.242;2023-07-29T11:56:38;98062.72;;;27.23;45.25
57574;BME280;68988;49.000;21.242;2023-07-29T11:59:03;98050.88;;;27.24;45.44
57574;BME280;68988;49.000;21.242;2023-07-29T12:01:29;98053.88;;;27.23;45.59
57574;BME280;68988;49.000;21.242;2023-07-29T12:03:55;98045.00;;;27.22;45.19
57574;BME280;68988;49.000;21.242;2023-07-29T12:06:23;98048.78;;;27.21;45.67
57574;BME280;68988;49.000;21.242;2023-07-29T12:08:50;98043.41;;;27.21;45.19
57574;BME280;68988;49.000;21.242;2023-07-29T12:11:16;98046.09;;;27.21;45.38
57574;BME280;68988;49.000;21.242;2023-07-29T12:13:42;98046.56;;;27.23;45.12
57574;BME280;68988;49.000;21.242;2023-07-29T12:16:07;98039.63;;;27.22;45.12
57574;BME280;68988;49.000;21.242;2023-07-29T12:18:33;98056.38;;;27.19;44.86
57574;BME280;68988;49.000;21.242;2023-07-29T12:20:59;98070.00;;;27.23;44.95
57574;BME280;68988;49.000;21.242;2023-07-29T12:23:25;98064.94;;;27.21;45.21
57574;BME280;68988;49.000;21.242;2023-07-29T12:25:57;98067.63;;;27.21;45.34
57574;BME280;68988;49.000;21.242;2023-07-29T12:28:23;98071.91;;;27.22;45.52
57574;BME280;68988;49.000;21.242;2023-07-29T12:30:53;98081.69;;;27.18;45.35
57574;BME280;68988;49.000;21.242;2023-07-29T12:33:33;98075.69;;;27.21;45.59
57574;BME280;68988;49.000;21.242;2023-07-29T12:36:00;98076.13;;;27.14;46.11
57574;BME280;68988;49.000;21.242;2023-07-29T12:38:26;98083.69;;;27.12;46.54
57574;BME280;68988;49.000;21.242;2023-07-29T12:40:51;98109.22;;;27.15;46.97
57574;BME280;68988;49.000;21.242;2023-07-29T12:43:17;98118.66;;;27.12;47.07
57574;BME280;68988;49.000;21.242;2023-07-29T12:45:42;98103.94;;;27.10;47.15
57574;BME280;68988;49.000;21.242;2023-07-29T12:48:09;98097.44;;;27.11;47.41
57574;BME280;68988;49.000;21.242;2023-07-29T12:50:35;98092.56;;;27.13;47.35
57574;BME280;68988;49.000;21.242;2023-07-29T12:53:01;98087.28;;;27.08;46.85
57574;BME280;68988;49.000;21.242;2023-07-29T12:55:26;98081.28;;;27.11;47.08
57574;BME280;68988;49.000;21.242;2023-07-29T12:57:52;98085.88;;;27.10;47.19
57574;BME280;68988;49.000;21.242;2023-07-29T13:00:17;98086.69;;;27.11;47.54
57574;BME280;68988;49.000;21.242;2023-07-29T13:02:42;98090.78;;;27.08;47.58
57574;BME280;68988;49.000;21.242;2023-07-29T13:05:11;98092.06;;;27.11;48.17
57574;BME280;68988;49.000;21.242;2023-07-29T13:07:40;98094.25;;;27.09;47.90
57574;BME280;68988;49.000;21.242;2023-07-29T13:10:05;98089.38;;;27.11;48.33